createdAt,value
2018-07-24T00:01:30.660Z,84.00
2018-07-24T00:03:59.023Z,84.20
2018-07-24T00:06:27.331Z,84.30
2018-07-24T00:08:55.636Z,84.10
2018-07-24T00:11:23.916Z,84.80
2018-07-24T00:13:52.248Z,84.10
2018-07-24T00:16:20.638Z,84.10
2018-07-24T00:18:48.996Z,84.10
2018-07-24T00:21:17.353Z,84.30
2018-07-24T00:23:45.663Z,84.30
2018-07-24T00:26:14.008Z,84.40
2018-07-24T00:28:42.327Z,84.60
2018-07-24T00:31:10.720Z,84.70
2018-07-24T00:33:39.040Z,84.70
2018-07-24T00:36:07.498Z,84.80
2018-07-24T00:38:35.840Z,84.80
2018-07-24T00:41:04.152Z,84.90
2018-07-24T00:43:32.431Z,85.00
2018-07-24T00:46:00.703Z,85.00
2018-07-24T00:48:29.108Z,85.20
2018-07-24T00:50:57.519Z,85.40
2018-07-24T00:53:25.841Z,85.30
2018-07-24T00:55:54.219Z,85.50
2018-07-24T00:58:22.567Z,85.70
2018-07-24T01:00:50.919Z,85.70
2018-07-24T01:03:19.532Z,86.60
2018-07-24T01:05:47.867Z,85.90
2018-07-24T01:08:16.271Z,86.90
2018-07-24T01:10:44.579Z,86.30
2018-07-24T01:13:12.904Z,86.40
2018-07-24T01:15:41.251Z,86.50
2018-07-24T01:18:09.528Z,86.60
2018-07-24T01:20:37.863Z,86.70
2018-07-24T01:23:06.405Z,87.50
2018-07-24T01:25:34.707Z,86.80
2018-07-24T01:28:03.089Z,86.80
2018-07-24T01:30:31.427Z,87.00
2018-07-24T01:32:59.745Z,87.00
2018-07-24T01:35:28.085Z,87.20
2018-07-24T01:37:56.484Z,87.30
2018-07-24T01:40:24.849Z,87.20
2018-07-24T01:42:53.169Z,88.00
2018-07-24T01:45:21.459Z,87.40
2018-07-24T01:47:49.805Z,87.60
2018-07-24T01:50:18.116Z,87.80
2018-07-24T01:52:46.496Z,88.00
2018-07-24T01:55:14.822Z,88.90
2018-07-24T01:57:43.144Z,88.40
2018-07-24T02:00:15.658Z,88.40
2018-07-24T02:02:44.070Z,88.50
2018-07-24T02:05:12.754Z,88.50
2018-07-24T02:07:41.540Z,88.50
2018-07-24T02:10:09.916Z,88.70
2018-07-24T02:12:38.431Z,88.80
2018-07-24T02:15:07.219Z,89.00
2018-07-24T02:17:35.583Z,89.10
2018-07-24T02:20:04.025Z,89.20
2018-07-24T02:22:32.340Z,89.20
2018-07-24T02:25:00.694Z,89.40
2018-07-24T02:27:29.070Z,89.50
2018-07-24T02:29:57.668Z,89.80
2018-07-24T02:32:26.044Z,89.80
2018-07-24T02:34:54.440Z,90.00
2018-07-24T02:37:22.832Z,90.00
2018-07-24T02:39:51.184Z,90.00
2018-07-24T02:42:19.551Z,90.10
2018-07-24T02:44:47.869Z,90.20
2018-07-24T02:47:16.218Z,90.20
2018-07-24T02:49:44.528Z,90.30
2018-07-24T02:52:12.888Z,90.30
2018-07-24T02:54:41.264Z,90.40
2018-07-24T02:57:09.726Z,90.40
2018-07-24T02:59:38.068Z,90.40
2018-07-24T03:02:06.827Z,90.40
2018-07-24T03:04:35.246Z,90.40
2018-07-24T03:07:03.572Z,90.40
2018-07-24T03:09:31.981Z,90.40
2018-07-24T03:12:00.337Z,90.50
2018-07-24T03:14:28.624Z,90.50
2018-07-24T03:19:25.028Z,90.90
2018-07-24T03:21:53.405Z,90.60
2018-07-24T03:24:21.701Z,90.70
2018-07-24T03:26:50.049Z,90.80
2018-07-24T03:29:18.412Z,90.80
2018-07-24T03:31:46.968Z,90.80
2018-07-24T03:34:15.253Z,90.80
2018-07-24T03:36:43.580Z,90.80
2018-07-24T03:39:13.038Z,90.80
2018-07-24T03:41:41.652Z,90.80
2018-07-24T03:44:10.192Z,90.90
2018-07-24T03:46:38.544Z,90.90
2018-07-24T03:49:06.899Z,90.90
2018-07-24T03:51:35.225Z,90.90
2018-07-24T03:56:31.672Z,91.00
2018-07-24T03:59:00.008Z,91.00
2018-07-24T04:01:28.344Z,91.10
2018-07-24T04:03:56.661Z,91.10
2018-07-24T04:06:24.974Z,91.10
2018-07-24T04:08:53.268Z,91.20
2018-07-24T04:11:21.593Z,91.20
2018-07-24T04:13:50.024Z,91.30
2018-07-24T04:16:18.345Z,91.30
2018-07-24T04:18:47.851Z,91.40
2018-07-24T04:21:17.525Z,91.40
2018-07-24T04:23:46.273Z,91.50
2018-07-24T04:26:14.653Z,91.50
2018-07-24T04:28:44.144Z,91.50
2018-07-24T04:31:13.265Z,91.50
2018-07-24T04:33:42.169Z,91.50
2018-07-24T04:36:10.532Z,91.50
2018-07-24T04:38:38.848Z,91.50
2018-07-24T04:41:07.283Z,91.60
2018-07-24T04:43:35.658Z,91.60
2018-07-24T04:46:03.991Z,91.70
2018-07-24T04:48:32.583Z,91.70
2018-07-24T04:51:00.921Z,91.70
2018-07-24T04:53:29.224Z,91.70
2018-07-24T04:55:57.528Z,91.80
2018-07-24T04:58:25.909Z,91.80
2018-07-24T05:00:54.448Z,91.80
2018-07-24T05:03:22.887Z,91.80
2018-07-24T05:05:51.205Z,91.80
2018-07-24T05:08:19.826Z,91.90
2018-07-24T05:10:48.151Z,91.90
2018-07-24T05:13:16.488Z,92.00
2018-07-24T05:15:44.788Z,92.00
2018-07-24T05:20:41.209Z,92.10
2018-07-24T05:23:09.540Z,92.10
2018-07-24T05:25:37.887Z,92.10
2018-07-24T05:28:06.208Z,92.10
2018-07-24T05:30:34.589Z,92.20
2018-07-24T05:33:02.968Z,92.20
2018-07-24T05:35:31.336Z,92.30
2018-07-24T05:37:59.665Z,92.20
2018-07-24T05:40:28.051Z,92.60
2018-07-24T05:42:56.553Z,92.30
2018-07-24T05:45:24.881Z,92.20
2018-07-24T05:47:53.953Z,92.20
2018-07-24T05:50:22.361Z,92.30
2018-07-24T05:52:50.707Z,92.20
2018-07-24T05:55:19.019Z,92.30
2018-07-24T05:57:47.635Z,92.30
2018-07-24T06:00:16.021Z,92.30
2018-07-24T06:02:44.345Z,92.30
2018-07-24T06:05:12.706Z,92.10
2018-07-24T06:07:41.032Z,91.90
2018-07-24T06:10:09.517Z,91.70
2018-07-24T06:12:37.884Z,91.50
2018-07-24T06:15:06.845Z,91.40
2018-07-24T06:17:35.258Z,91.20
2018-07-24T06:20:03.644Z,91.00
2018-07-24T06:22:31.993Z,90.60
2018-07-24T06:25:00.349Z,90.50
2018-07-24T06:27:28.700Z,90.10
2018-07-24T06:29:57.085Z,89.80
2018-07-24T06:32:25.492Z,89.60
2018-07-24T06:34:53.908Z,89.10
2018-07-24T06:37:22.440Z,89.50
2018-07-24T06:39:50.756Z,88.20
2018-07-24T06:42:19.097Z,87.10
2018-07-24T06:44:47.413Z,86.90
2018-07-24T06:47:15.732Z,86.30
2018-07-24T06:49:44.081Z,85.10
2018-07-24T06:52:12.392Z,83.50
2018-07-24T06:54:40.696Z,82.80
2018-07-24T06:57:09.044Z,81.50
2018-07-24T06:59:37.364Z,79.70
2018-07-24T07:02:05.757Z,78.00
2018-07-24T07:04:34.173Z,77.60
2018-07-24T07:07:02.521Z,77.40
2018-07-24T07:09:30.888Z,76.40
2018-07-24T07:11:59.198Z,74.90
2018-07-24T07:14:27.659Z,73.00
2018-07-24T07:16:55.964Z,71.30
2018-07-24T07:19:24.352Z,69.40
2018-07-24T07:21:52.644Z,68.40
2018-07-24T07:24:20.976Z,68.10
2018-07-24T07:26:49.313Z,68.00
2018-07-24T07:29:17.643Z,67.80
2018-07-24T07:31:45.976Z,67.40
2018-07-24T07:34:14.358Z,66.30
2018-07-24T07:36:42.680Z,65.60
2018-07-24T07:39:11.648Z,65.20
2018-07-24T07:41:40.283Z,64.90
2018-07-24T07:44:09.096Z,63.90
2018-07-24T07:46:37.453Z,64.40
2018-07-24T07:49:05.852Z,63.00
2018-07-24T07:51:34.258Z,62.20
2018-07-24T07:54:02.596Z,62.00
2018-07-24T07:56:30.982Z,61.70
2018-07-24T07:58:59.344Z,61.20
2018-07-24T08:01:27.870Z,60.90
2018-07-24T08:03:56.223Z,60.10
2018-07-24T08:06:24.580Z,60.00
2018-07-24T08:08:52.913Z,59.50
2018-07-24T08:11:21.288Z,59.50
2018-07-24T08:13:49.612Z,59.10
2018-07-24T08:16:18.136Z,58.50
2018-07-24T08:18:46.472Z,58.60
2018-07-24T08:21:14.776Z,58.40
2018-07-24T08:23:43.157Z,57.40
2018-07-24T08:26:11.440Z,56.80
2018-07-24T08:28:39.784Z,56.60
2018-07-24T08:31:08.140Z,56.50
2018-07-24T08:33:36.482Z,55.50
2018-07-24T08:36:04.797Z,55.30
2018-07-24T08:38:33.121Z,55.40
2018-07-24T08:41:01.448Z,54.50
2018-07-24T08:43:29.757Z,54.40
2018-07-24T08:45:58.061Z,54.10
2018-07-24T08:50:54.458Z,53.30
2018-07-24T08:53:23.082Z,53.20
2018-07-24T08:55:51.344Z,52.70
2018-07-24T08:58:19.823Z,51.90
2018-07-24T09:00:48.249Z,50.70
2018-07-24T09:03:16.719Z,50.10
2018-07-24T09:05:44.937Z,48.80
2018-07-24T09:08:13.248Z,47.70
2018-07-24T09:10:41.617Z,47.30
2018-07-24T09:13:10.024Z,46.30
2018-07-24T09:15:38.351Z,45.50
2018-07-24T09:18:06.745Z,44.50
2018-07-24T09:20:35.068Z,43.60
2018-07-24T09:23:03.388Z,42.70
2018-07-24T09:25:31.700Z,41.70
2018-07-24T09:28:00.061Z,41.00
2018-07-24T09:30:28.385Z,40.40
2018-07-24T09:32:56.732Z,39.80
2018-07-24T09:35:25.020Z,39.40
2018-07-24T09:37:53.354Z,38.10
2018-07-24T09:40:21.694Z,37.70
2018-07-24T09:42:50.004Z,37.30
2018-07-24T09:45:18.343Z,36.80
2018-07-24T09:47:46.718Z,36.70
2018-07-24T09:50:15.092Z,36.30
2018-07-24T09:52:43.396Z,35.70
2018-07-24T09:57:39.895Z,35.40
2018-07-24T10:00:08.700Z,34.40
2018-07-24T10:02:37.445Z,34.50
2018-07-24T10:05:06.041Z,34.80
2018-07-24T10:07:34.529Z,35.20
2018-07-24T10:10:02.885Z,35.30
2018-07-24T10:12:31.208Z,35.50
2018-07-24T10:14:59.508Z,35.80
2018-07-24T10:17:27.882Z,36.00
2018-07-24T10:19:56.252Z,35.60
2018-07-24T10:22:24.705Z,35.80
2018-07-24T10:24:53.112Z,36.10
2018-07-24T10:27:21.453Z,35.70
2018-07-24T10:29:49.775Z,35.30
2018-07-24T10:32:18.148Z,35.30
2018-07-24T10:34:46.605Z,35.30
2018-07-24T10:37:14.930Z,35.00
2018-07-24T10:39:43.748Z,35.20
2018-07-24T10:42:12.092Z,35.90
2018-07-24T10:44:40.415Z,36.00
2018-07-24T10:47:08.780Z,36.70
2018-07-24T10:49:37.085Z,35.50
2018-07-24T10:54:33.584Z,35.20
2018-07-24T10:57:02.012Z,34.60
2018-07-24T10:59:30.368Z,34.20
2018-07-24T11:01:58.693Z,34.40
2018-07-24T11:04:27.020Z,34.30
2018-07-24T11:06:55.352Z,33.60
2018-07-24T11:09:23.676Z,33.10
2018-07-24T11:11:51.985Z,32.60
2018-07-24T11:14:20.548Z,32.10
2018-07-24T11:16:48.867Z,31.90
2018-07-24T11:19:17.192Z,31.50
2018-07-24T11:21:45.736Z,31.10
2018-07-24T11:24:13.992Z,30.20
2018-07-24T11:26:42.352Z,29.70
2018-07-24T11:29:10.712Z,29.30
2018-07-24T11:31:39.044Z,29.00
2018-07-24T11:36:35.389Z,28.60
2018-07-24T11:39:05.892Z,28.60
2018-07-24T11:41:34.198Z,28.20
2018-07-24T11:44:02.543Z,27.70
2018-07-24T11:46:30.938Z,27.30
2018-07-24T11:48:59.600Z,27.00
2018-07-24T11:51:28.106Z,26.80
2018-07-24T11:53:56.408Z,26.60
2018-07-24T11:56:24.721Z,26.70
2018-07-24T11:58:53.067Z,26.70
2018-07-24T12:01:21.408Z,26.70
2018-07-24T12:03:49.781Z,26.50
2018-07-24T12:06:18.108Z,26.20
2018-07-24T12:08:46.438Z,26.00
2018-07-24T12:11:14.788Z,26.30
2018-07-24T12:13:43.153Z,26.00
2018-07-24T12:16:11.568Z,25.80
2018-07-24T12:18:39.864Z,25.60
2018-07-24T12:21:08.231Z,25.40
2018-07-24T12:23:36.540Z,25.30
2018-07-24T12:26:05.039Z,25.10
2018-07-24T12:28:33.365Z,25.10
2018-07-24T12:31:01.788Z,25.10
2018-07-24T12:33:30.124Z,25.30
2018-07-24T12:35:58.549Z,25.10
2018-07-24T12:38:26.866Z,24.60
2018-07-24T12:40:55.264Z,24.60
2018-07-24T12:43:23.723Z,24.50
2018-07-24T12:45:52.176Z,24.30
2018-07-24T12:48:20.505Z,24.30
2018-07-24T12:50:48.815Z,24.80
2018-07-24T12:53:17.277Z,24.90
2018-07-24T12:55:45.571Z,25.00
2018-07-24T12:58:13.904Z,24.90
2018-07-24T13:00:42.208Z,24.80
2018-07-24T13:03:10.601Z,24.40
2018-07-24T13:08:06.997Z,24.30
2018-07-24T13:10:35.442Z,24.10
2018-07-24T13:13:03.882Z,24.00
2018-07-24T13:15:32.172Z,23.80
2018-07-24T13:18:00.496Z,23.80
2018-07-24T13:20:28.864Z,24.20
2018-07-24T13:22:57.301Z,24.40
2018-07-24T13:25:25.633Z,24.40
2018-07-24T13:27:53.980Z,24.00
2018-07-24T13:30:22.337Z,23.90
2018-07-24T13:32:50.684Z,23.80
2018-07-24T13:35:18.970Z,23.60
2018-07-24T13:37:47.276Z,23.40
2018-07-24T13:40:15.581Z,23.40
2018-07-24T13:42:43.945Z,23.20
2018-07-24T13:45:12.296Z,23.00
2018-07-24T13:47:40.596Z,22.70
2018-07-24T13:50:08.929Z,22.60
2018-07-24T13:52:37.323Z,22.40
2018-07-24T13:57:33.756Z,22.90
2018-07-24T14:00:02.111Z,22.70
2018-07-24T14:02:30.416Z,22.70
2018-07-24T14:04:58.772Z,23.10
2018-07-24T14:07:27.119Z,22.80
2018-07-24T14:09:55.477Z,22.50
2018-07-24T14:12:23.971Z,22.30
2018-07-24T14:14:52.312Z,22.60
2018-07-24T14:17:20.656Z,22.70
2018-07-24T14:19:49.015Z,22.70
2018-07-24T14:22:17.356Z,22.70
2018-07-24T14:24:45.870Z,22.80
2018-07-24T14:27:14.201Z,22.60
2018-07-24T14:29:42.518Z,22.50
2018-07-24T14:32:10.886Z,22.60
2018-07-24T14:34:39.245Z,22.60
2018-07-24T14:37:07.738Z,22.90
2018-07-24T14:42:04.128Z,24.10
2018-07-24T14:44:32.454Z,24.90
2018-07-24T14:47:00.884Z,24.40
2018-07-24T14:49:29.213Z,24.40
2018-07-24T14:51:57.580Z,24.20
2018-07-24T14:54:25.997Z,24.60
2018-07-24T14:56:54.301Z,24.60
2018-07-24T14:59:22.669Z,25.00
2018-07-24T15:01:51.152Z,25.30
2018-07-24T15:04:19.476Z,25.80
2018-07-24T15:06:47.768Z,26.70
2018-07-24T15:11:44.717Z,27.70
2018-07-24T15:16:41.117Z,28.40
2018-07-24T15:19:09.416Z,28.60
2018-07-24T15:21:37.728Z,28.90
2018-07-24T15:24:06.064Z,29.40
2018-07-24T15:26:34.556Z,30.10
2018-07-24T15:29:02.862Z,30.60
2018-07-24T15:33:59.267Z,31.00
2018-07-24T15:36:27.602Z,31.60
2018-07-24T15:38:55.970Z,32.20
2018-07-24T15:41:24.343Z,32.70
2018-07-24T15:43:52.687Z,33.00
2018-07-24T15:46:21.058Z,33.20
2018-07-24T15:48:49.449Z,33.50
2018-07-24T15:51:17.760Z,34.00
2018-07-24T15:56:14.177Z,34.70
2018-07-24T15:58:42.484Z,35.10
2018-07-24T16:01:10.993Z,35.50
2018-07-24T16:03:39.453Z,35.60
2018-07-24T16:06:07.796Z,36.10
2018-07-24T16:08:36.072Z,36.60
2018-07-24T16:11:04.512Z,37.60
2018-07-24T16:13:32.812Z,37.80
2018-07-24T16:16:01.136Z,38.30
2018-07-24T16:20:57.560Z,39.40
2018-07-24T16:23:26.200Z,39.30
2018-07-24T16:25:54.550Z,39.50
2018-07-24T16:30:50.904Z,40.20
2018-07-24T16:33:19.310Z,40.90
2018-07-24T16:35:48.004Z,41.00
2018-07-24T16:38:16.352Z,41.70
2018-07-24T16:40:44.731Z,42.30
2018-07-24T16:43:13.078Z,43.00
2018-07-24T16:45:41.536Z,43.80
2018-07-24T16:48:09.903Z,44.40
2018-07-24T16:50:38.292Z,44.90
2018-07-24T16:53:06.677Z,45.30
2018-07-24T16:55:35.048Z,45.90
2018-07-24T16:58:03.485Z,46.50
2018-07-24T17:00:31.993Z,47.10
2018-07-24T17:03:00.532Z,47.70
2018-07-24T17:05:28.987Z,47.70
2018-07-24T17:07:57.379Z,48.10
2018-07-24T17:10:25.798Z,49.10
2018-07-24T17:12:54.212Z,49.00
2018-07-24T17:15:22.557Z,49.40
2018-07-24T17:17:52.294Z,49.30
2018-07-24T17:20:20.656Z,49.60
2018-07-24T17:22:49.046Z,50.00
2018-07-24T17:25:17.422Z,50.20
2018-07-24T17:27:45.841Z,50.50
2018-07-24T17:30:14.264Z,50.90
2018-07-24T17:32:42.768Z,51.10
2018-07-24T17:35:11.072Z,51.30
2018-07-24T17:37:39.540Z,51.60
2018-07-24T17:40:07.917Z,52.10
2018-07-24T17:42:36.520Z,52.60
2018-07-24T17:45:05.453Z,52.90
2018-07-24T17:47:33.850Z,53.30
2018-07-24T17:50:02.380Z,53.90
2018-07-24T17:52:30.822Z,54.00
2018-07-24T17:54:59.140Z,54.30
2018-07-24T17:57:27.647Z,54.80
2018-07-24T17:59:55.953Z,54.70
2018-07-24T18:02:24.300Z,54.70
2018-07-24T18:04:52.756Z,54.90
2018-07-24T18:07:21.077Z,55.20
2018-07-24T18:09:49.377Z,54.70
2018-07-24T18:12:18.509Z,53.90
2018-07-24T18:14:47.073Z,53.50
2018-07-24T18:17:15.569Z,53.20
2018-07-24T18:19:43.931Z,53.00
2018-07-24T18:22:12.262Z,53.10
2018-07-24T18:29:37.469Z,54.00
2018-07-24T18:32:05.855Z,55.40
2018-07-24T18:34:34.212Z,55.80
2018-07-24T18:37:02.610Z,56.00
2018-07-24T18:39:30.902Z,56.70
2018-07-24T18:41:59.244Z,56.50
2018-07-24T18:44:27.748Z,56.80
2018-07-24T18:46:56.152Z,56.00
2018-07-24T18:49:25.450Z,56.20
2018-07-24T18:51:53.793Z,56.10
2018-07-24T18:54:22.144Z,56.30
2018-07-24T18:56:50.498Z,56.00
2018-07-24T18:59:18.912Z,56.80
2018-07-24T19:01:47.668Z,56.80
2018-07-24T19:04:16.232Z,56.70
2018-07-24T19:06:44.560Z,56.20
2018-07-24T19:09:12.901Z,56.20
2018-07-24T19:11:41.473Z,56.30
2018-07-24T19:14:10.141Z,56.60
2018-07-24T19:16:38.489Z,56.60
2018-07-24T19:19:06.944Z,56.90
2018-07-24T19:24:03.702Z,58.00
2018-07-24T19:29:01.102Z,59.00
2018-07-24T19:31:30.284Z,59.50
2018-07-24T19:33:58.700Z,59.80
2018-07-24T19:36:27.416Z,60.70
2018-07-24T19:38:55.811Z,61.10
2018-07-24T19:41:24.281Z,61.60
2018-07-24T19:43:52.713Z,61.70
2018-07-24T19:46:21.108Z,61.60
2018-07-24T19:48:49.467Z,61.60
2018-07-24T19:51:18.060Z,61.70
2018-07-24T19:53:46.463Z,62.20
2018-07-24T19:56:14.832Z,62.60
2018-07-24T19:58:43.177Z,62.50
2018-07-24T20:01:11.520Z,62.90
2018-07-24T20:03:40.006Z,62.60
2018-07-24T20:06:08.389Z,63.40
2018-07-24T20:08:36.728Z,64.40
2018-07-24T20:11:05.153Z,64.40
2018-07-24T20:13:33.513Z,64.60
2018-07-24T20:16:01.894Z,64.50
2018-07-24T20:18:30.456Z,64.80
2018-07-24T20:20:58.858Z,65.00
2018-07-24T20:23:27.593Z,65.10
2018-07-24T20:25:55.976Z,65.70
2018-07-24T20:28:24.325Z,65.80
2018-07-24T20:30:52.667Z,66.30
2018-07-24T20:33:21.036Z,67.10
2018-07-24T20:35:49.344Z,67.40
2018-07-24T20:38:17.685Z,67.20
2018-07-24T20:40:46.036Z,67.40
2018-07-24T20:43:14.414Z,67.50
2018-07-24T20:45:42.844Z,67.70
2018-07-24T20:48:11.209Z,67.70
2018-07-24T20:50:39.572Z,68.00
2018-07-24T20:53:07.887Z,67.90
2018-07-24T20:55:36.424Z,68.30
2018-07-24T20:58:05.014Z,68.60
2018-07-24T21:00:33.459Z,68.70
2018-07-24T21:03:04.740Z,69.00
2018-07-24T21:05:33.056Z,69.30
2018-07-24T21:10:29.453Z,69.10
2018-07-24T21:12:57.830Z,69.50
2018-07-24T21:15:26.121Z,69.40
2018-07-24T21:17:54.455Z,69.60
2018-07-24T21:20:22.792Z,69.90
2018-07-24T21:22:51.116Z,70.20
2018-07-24T21:25:19.470Z,70.20
2018-07-24T21:27:47.807Z,70.30
2018-07-24T21:30:16.171Z,70.10
2018-07-24T21:32:44.483Z,70.30
2018-07-24T21:35:12.834Z,70.50
2018-07-24T21:37:41.152Z,70.20
2018-07-24T21:40:09.475Z,70.70
2018-07-24T21:42:37.923Z,70.70
2018-07-24T21:45:06.201Z,70.70
2018-07-24T21:47:34.573Z,71.00
2018-07-24T21:50:02.916Z,71.30
2018-07-24T21:52:31.289Z,71.50
2018-07-24T21:54:59.626Z,72.00
2018-07-24T21:57:27.956Z,72.20
2018-07-24T21:59:56.364Z,72.30
2018-07-24T22:04:52.916Z,72.40
2018-07-24T22:09:49.264Z,72.80
2018-07-24T22:12:17.606Z,73.00
2018-07-24T22:14:45.948Z,73.10
2018-07-24T22:17:14.253Z,73.40
2018-07-24T22:19:42.542Z,73.60
2018-07-24T22:22:10.932Z,73.80
2018-07-24T22:24:39.232Z,74.10
2018-07-24T22:27:07.645Z,74.20
2018-07-24T22:29:35.948Z,74.40
2018-07-24T22:32:04.308Z,74.60
2018-07-24T22:34:32.605Z,74.90
2018-07-24T22:37:01.045Z,75.20
2018-07-24T22:39:29.372Z,75.40
2018-07-24T22:41:58.156Z,75.20
2018-07-24T22:44:26.493Z,75.30
2018-07-24T22:46:55.012Z,75.50
2018-07-24T22:49:23.333Z,75.50
2018-07-24T22:51:51.648Z,75.50
2018-07-24T22:54:21.032Z,75.60
2018-07-24T22:56:49.356Z,75.80
2018-07-24T22:59:17.664Z,75.90
2018-07-24T23:01:45.984Z,75.90
2018-07-24T23:04:14.355Z,76.00
2018-07-24T23:06:42.678Z,76.10
2018-07-24T23:09:11.443Z,76.50
2018-07-24T23:11:40.188Z,76.80
2018-07-24T23:14:08.497Z,76.80
2018-07-24T23:16:36.971Z,76.90
2018-07-24T23:19:05.599Z,77.40
2018-07-24T23:21:33.924Z,77.40
2018-07-24T23:24:02.289Z,77.60
2018-07-24T23:26:30.632Z,77.70
2018-07-24T23:28:58.947Z,77.70
2018-07-24T23:31:27.327Z,77.50
2018-07-24T23:33:55.724Z,77.50
2018-07-24T23:36:24.060Z,77.70
2018-07-24T23:38:52.396Z,77.80
2018-07-24T23:41:20.753Z,77.90
2018-07-24T23:43:49.144Z,77.90
2018-07-24T23:46:17.659Z,78.10
2018-07-24T23:48:46.013Z,78.20
2018-07-24T23:51:14.320Z,78.30
2018-07-24T23:53:42.676Z,78.50
2018-07-24T23:56:10.956Z,78.50
2018-07-24T23:58:39.336Z,78.60
